createdAt,value
2023-01-20T00:01:35.594Z,11.91
2023-01-20T00:04:03.958Z,12.10
2023-01-20T00:06:32.205Z,12.12
2023-01-20T00:09:01.969Z,11.92
2023-01-20T00:11:32.409Z,11.35
2023-01-20T00:14:02.662Z,10.87
2023-01-20T00:16:32.747Z,11.27
2023-01-20T00:19:01.292Z,10.48
2023-01-20T00:21:29.683Z,10.44
2023-01-20T00:23:57.927Z,10.47
2023-01-20T00:26:26.725Z,10.45
2023-01-20T00:28:57.769Z,10.67
2023-01-20T00:31:28.054Z,10.17
2023-01-20T00:33:57.867Z,10.37
2023-01-20T00:36:27.737Z,10.55
2023-01-20T00:38:56.108Z,9.58
2023-01-20T00:41:24.845Z,9.79
2023-01-20T00:43:53.271Z,10.08
2023-01-20T00:46:23.607Z,10.20
2023-01-20T00:48:51.980Z,10.32
2023-01-20T00:51:20.441Z,10.18
2023-01-20T00:53:48.771Z,10.04
2023-01-20T00:56:17.103Z,10.51
2023-01-20T00:58:45.868Z,10.60
2023-01-20T01:01:14.791Z,10.44
2023-01-20T01:03:45.734Z,10.54
2023-01-20T01:06:15.919Z,10.47
2023-01-20T01:08:44.944Z,10.43
2023-01-20T01:11:14.302Z,10.29
2023-01-20T01:13:42.906Z,10.41
2023-01-20T01:16:13.873Z,10.11
2023-01-20T01:18:42.965Z,10.04
2023-01-20T01:21:14.990Z,10.03
2023-01-20T01:23:43.433Z,10.01
2023-01-20T01:26:12.137Z,9.57
2023-01-20T01:28:40.573Z,9.77
2023-01-20T01:31:09.637Z,9.25
2023-01-20T01:33:38.112Z,9.36
2023-01-20T01:36:08.699Z,9.10
2023-01-20T01:38:38.338Z,9.41
2023-01-20T01:41:07.049Z,9.51
2023-01-20T01:43:38.725Z,9.49
2023-01-20T01:46:07.814Z,9.57
2023-01-20T01:48:40.460Z,8.75
2023-01-20T01:51:15.281Z,8.57
2023-01-20T01:53:48.396Z,8.94
2023-01-20T01:56:18.141Z,9.27
2023-01-20T01:58:49.407Z,9.34
2023-01-20T02:01:18.049Z,9.21
2023-01-20T02:03:53.779Z,9.35
2023-01-20T02:06:24.160Z,9.77
2023-01-20T02:08:54.199Z,9.27
2023-01-20T02:11:22.798Z,9.08
2023-01-20T02:13:51.154Z,8.43
2023-01-20T02:16:27.685Z,9.08
2023-01-20T02:19:07.909Z,9.19
2023-01-20T02:22:07.231Z,9.27
2023-01-20T02:25:06.015Z,9.59
2023-01-20T02:28:07.627Z,10.13
2023-01-20T02:30:47.928Z,9.91
2023-01-20T02:33:21.255Z,10.27
2023-01-20T02:35:54.669Z,10.50
2023-01-20T02:38:29.300Z,10.30
2023-01-20T02:41:07.953Z,10.29
2023-01-20T02:43:45.840Z,10.40
2023-01-20T02:46:22.252Z,10.24
2023-01-20T02:48:57.483Z,10.22
2023-01-20T02:51:31.026Z,10.28
2023-01-20T02:54:03.244Z,10.43
2023-01-20T02:56:34.313Z,9.75
2023-01-20T02:59:06.631Z,9.48
2023-01-20T03:01:40.666Z,9.94
2023-01-20T03:04:14.877Z,9.88
2023-01-20T03:06:47.867Z,10.29
2023-01-20T03:09:21.839Z,10.39
2023-01-20T03:11:57.815Z,10.50
2023-01-20T03:14:26.259Z,10.26
2023-01-20T03:16:54.824Z,9.46
2023-01-20T03:19:24.597Z,9.58
2023-01-20T03:21:53.651Z,9.57
2023-01-20T03:24:23.512Z,9.83
2023-01-20T03:26:51.922Z,10.14
2023-01-20T03:29:20.268Z,10.12
2023-01-20T03:31:51.639Z,10.20
2023-01-20T03:34:26.194Z,10.34
2023-01-20T03:36:56.063Z,10.18
2023-01-20T03:39:26.088Z,9.47
2023-01-20T03:42:06.146Z,9.37
2023-01-20T03:44:50.018Z,9.10
2023-01-20T03:47:25.567Z,9.54
2023-01-20T03:50:00.392Z,9.87
2023-01-20T03:52:46.893Z,9.88
2023-01-20T03:55:22.631Z,9.74
2023-01-20T03:57:56.103Z,9.56
2023-01-20T04:00:26.975Z,9.16
2023-01-20T04:03:01.024Z,9.74
2023-01-20T04:05:31.057Z,10.05
2023-01-20T04:08:03.364Z,9.69
2023-01-20T04:10:34.310Z,9.92
2023-01-20T04:13:02.642Z,10.21
2023-01-20T04:15:35.745Z,10.19
2023-01-20T04:18:15.180Z,9.47
2023-01-20T04:20:45.956Z,9.85
2023-01-20T04:23:22.428Z,10.14
2023-01-20T04:25:51.832Z,9.92
2023-01-20T04:28:20.099Z,9.99
2023-01-20T04:30:49.146Z,10.16
2023-01-20T04:33:17.538Z,10.11
2023-01-20T04:35:47.207Z,10.30
2023-01-20T04:38:15.436Z,10.09
2023-01-20T04:40:43.772Z,9.97
2023-01-20T04:43:12.552Z,10.11
2023-01-20T04:45:42.526Z,9.75
2023-01-20T04:48:11.686Z,9.95
2023-01-20T04:50:40.775Z,9.78
2023-01-20T04:53:13.555Z,9.76
2023-01-20T04:55:41.820Z,9.88
2023-01-20T04:58:11.016Z,9.50
2023-01-20T05:00:39.442Z,10.07
2023-01-20T05:03:08.107Z,10.27
2023-01-20T05:05:36.650Z,10.59
2023-01-20T05:08:05.455Z,10.61
2023-01-20T05:10:36.079Z,10.67
2023-01-20T05:13:04.423Z,10.39
2023-01-20T05:15:32.696Z,10.23
2023-01-20T05:18:01.034Z,10.59
2023-01-20T05:20:29.387Z,10.63
2023-01-20T05:23:01.093Z,10.46
2023-01-20T05:25:29.658Z,10.51
2023-01-20T05:27:59.979Z,10.28
2023-01-20T05:30:28.473Z,9.91
2023-01-20T05:32:56.864Z,10.17
2023-01-20T05:35:25.185Z,10.15
2023-01-20T05:37:55.481Z,10.12
2023-01-20T05:40:24.214Z,10.20
2023-01-20T05:42:52.585Z,10.35
2023-01-20T05:45:22.340Z,10.64
2023-01-20T05:47:56.089Z,10.32
2023-01-20T05:50:24.439Z,10.69
2023-01-20T05:52:52.690Z,10.87
2023-01-20T05:55:21.390Z,10.96
2023-01-20T05:57:49.627Z,10.86
2023-01-20T06:00:19.031Z,10.86
2023-01-20T06:02:48.808Z,10.85
2023-01-20T06:05:17.638Z,10.56
2023-01-20T06:07:46.314Z,10.70
2023-01-20T06:10:14.699Z,10.81
2023-01-20T06:12:42.993Z,10.46
2023-01-20T06:15:12.368Z,10.32
2023-01-20T06:17:40.770Z,10.15
2023-01-20T06:20:12.285Z,9.66
2023-01-20T06:22:40.634Z,10.09
2023-01-20T06:25:09.411Z,9.76
2023-01-20T06:27:38.514Z,9.63
2023-01-20T06:30:07.721Z,9.65
2023-01-20T06:32:35.960Z,9.48
2023-01-20T06:35:04.298Z,9.35
2023-01-20T06:37:34.191Z,9.17
2023-01-20T06:40:02.428Z,9.44
2023-01-20T06:42:32.465Z,9.15
2023-01-20T06:45:00.793Z,9.14
2023-01-20T06:47:29.163Z,9.11
2023-01-20T06:49:57.510Z,9.05
2023-01-20T06:52:25.903Z,8.87
2023-01-20T06:54:55.560Z,8.94
2023-01-20T06:57:23.881Z,9.11
2023-01-20T06:59:52.214Z,8.86
2023-01-20T07:02:20.501Z,8.43
2023-01-20T07:04:48.881Z,8.32
2023-01-20T07:07:17.224Z,8.61
2023-01-20T07:09:45.587Z,8.21
2023-01-20T07:12:15.252Z,8.27
2023-01-20T07:14:43.743Z,7.83
2023-01-20T07:17:13.752Z,7.98
2023-01-20T07:19:42.165Z,7.83
2023-01-20T07:22:10.521Z,7.78
2023-01-20T07:24:38.900Z,7.94
2023-01-20T07:27:07.405Z,8.10
2023-01-20T07:29:38.138Z,7.35
2023-01-20T07:32:06.804Z,8.20
2023-01-20T07:34:35.207Z,8.34
2023-01-20T07:37:03.522Z,8.08
2023-01-20T07:39:31.896Z,7.99
2023-01-20T07:42:00.384Z,8.09
2023-01-20T07:44:28.761Z,8.08
2023-01-20T07:46:58.848Z,8.29
2023-01-20T07:49:27.237Z,8.32
2023-01-20T07:51:55.726Z,8.23
2023-01-20T07:54:24.007Z,8.40
2023-01-20T07:56:52.209Z,8.37
2023-01-20T07:59:20.621Z,8.39
2023-01-20T08:01:49.013Z,8.58
2023-01-20T08:04:18.809Z,8.49
2023-01-20T08:06:47.175Z,8.59
2023-01-20T08:09:17.114Z,8.95
2023-01-20T08:11:45.395Z,8.81
2023-01-20T08:14:13.763Z,8.89
2023-01-20T08:16:42.079Z,8.49
2023-01-20T08:19:10.429Z,8.59
2023-01-20T08:21:40.236Z,8.91
2023-01-20T08:24:08.598Z,8.70
2023-01-20T08:26:39.053Z,8.78
2023-01-20T08:29:09.842Z,8.78
2023-01-20T08:31:39.343Z,9.05
2023-01-20T08:34:07.875Z,8.89
2023-01-20T08:36:40.660Z,8.90
2023-01-20T08:39:11.704Z,8.74
2023-01-20T08:41:43.285Z,8.10
2023-01-20T08:44:12.461Z,8.33
2023-01-20T08:46:41.952Z,8.04
2023-01-20T08:49:12.042Z,8.34
2023-01-20T08:51:42.593Z,8.32
2023-01-20T08:54:10.878Z,8.40
2023-01-20T08:56:39.150Z,8.80
2023-01-20T08:59:08.252Z,8.93
2023-01-20T09:01:38.109Z,8.93
2023-01-20T09:04:07.747Z,9.39
2023-01-20T09:06:42.907Z,9.37
2023-01-20T09:09:11.399Z,9.09
2023-01-20T09:11:41.178Z,9.13
2023-01-20T09:14:09.749Z,8.77
2023-01-20T09:16:38.144Z,9.17
2023-01-20T09:19:06.433Z,8.98
2023-01-20T09:21:34.745Z,9.55
2023-01-20T09:24:04.590Z,9.22
2023-01-20T09:26:38.559Z,9.18
2023-01-20T09:29:10.468Z,8.89
2023-01-20T09:31:40.069Z,8.87
2023-01-20T09:34:08.683Z,9.23
2023-01-20T09:36:36.965Z,9.29
2023-01-20T09:39:23.921Z,8.86
2023-01-20T09:42:15.205Z,8.76
2023-01-20T09:44:51.842Z,8.81
2023-01-20T09:47:30.778Z,8.63
2023-01-20T09:50:36.312Z,8.55
2023-01-20T09:53:15.733Z,8.82
2023-01-20T09:55:50.224Z,8.50
2023-01-20T09:58:27.057Z,8.91
2023-01-20T10:01:01.068Z,8.71
2023-01-20T10:03:37.419Z,8.37
2023-01-20T10:06:11.505Z,8.18
2023-01-20T10:09:03.695Z,8.00
2023-01-20T10:11:39.425Z,8.35
2023-01-20T10:14:15.319Z,8.75
2023-01-20T10:16:50.091Z,8.74
2023-01-20T10:19:27.318Z,9.20
2023-01-20T10:22:05.075Z,9.66
2023-01-20T10:24:38.073Z,9.40
2023-01-20T10:27:07.857Z,9.44
2023-01-20T10:29:38.027Z,9.14
2023-01-20T10:32:13.909Z,9.19
2023-01-20T10:34:47.137Z,9.24
2023-01-20T10:37:16.545Z,8.73
2023-01-20T10:39:50.268Z,8.68
2023-01-20T10:42:21.281Z,8.83
2023-01-20T10:44:51.908Z,8.74
2023-01-20T10:47:34.822Z,8.81
2023-01-20T10:50:32.082Z,9.33
2023-01-20T10:53:25.965Z,9.97
2023-01-20T10:56:09.023Z,9.22
2023-01-20T10:58:44.476Z,9.73
2023-01-20T11:01:16.722Z,9.55
2023-01-20T11:03:48.120Z,9.87
2023-01-20T11:06:20.694Z,9.22
2023-01-20T11:08:50.097Z,10.01
2023-01-20T11:11:21.871Z,10.50
2023-01-20T11:13:52.844Z,10.86
2023-01-20T11:16:24.809Z,11.29
2023-01-20T11:18:58.994Z,11.98
2023-01-20T11:21:29.292Z,12.24
2023-01-20T11:23:59.397Z,12.04
2023-01-20T11:26:29.620Z,11.93
2023-01-20T11:29:01.025Z,11.69
2023-01-20T11:31:40.002Z,11.78
2023-01-20T11:34:22.906Z,10.99
2023-01-20T11:36:52.072Z,10.85
2023-01-20T11:39:28.592Z,10.79
2023-01-20T11:42:13.386Z,10.55
2023-01-20T11:44:49.218Z,10.99
2023-01-20T11:47:23.567Z,11.03
2023-01-20T11:50:24.365Z,11.25
2023-01-20T11:52:52.761Z,10.96
2023-01-20T11:55:23.407Z,11.04
2023-01-20T11:57:54.823Z,11.16
2023-01-20T12:00:40.703Z,11.22
2023-01-20T12:03:28.934Z,11.49
2023-01-20T12:06:02.573Z,11.31
2023-01-20T12:08:35.533Z,10.61
2023-01-20T12:11:08.394Z,10.41
2023-01-20T12:13:56.292Z,10.21
2023-01-20T12:16:29.206Z,10.01
2023-01-20T12:19:02.589Z,9.96
2023-01-20T12:21:36.778Z,10.36
2023-01-20T12:24:13.796Z,10.62
2023-01-20T12:26:42.182Z,10.97
2023-01-20T12:29:19.964Z,11.40
2023-01-20T12:31:50.702Z,11.35
2023-01-20T12:34:25.519Z,10.70
2023-01-20T12:37:09.585Z,10.52
2023-01-20T12:39:56.025Z,11.33
2023-01-20T12:42:56.570Z,11.75
2023-01-20T12:45:44.965Z,11.87
2023-01-20T12:48:27.045Z,12.25
2023-01-20T12:51:09.954Z,12.36
2023-01-20T12:54:11.508Z,12.14
2023-01-20T12:56:52.454Z,12.22
2023-01-20T12:59:32.578Z,11.97
2023-01-20T13:02:15.779Z,11.65
2023-01-20T13:05:10.553Z,11.95
2023-01-20T13:08:09.186Z,11.57
2023-01-20T13:10:51.603Z,10.88
2023-01-20T13:13:31.450Z,10.84
2023-01-20T13:16:07.297Z,10.78
2023-01-20T13:18:44.623Z,10.45
2023-01-20T13:21:19.220Z,10.28
2023-01-20T13:23:48.563Z,10.30
2023-01-20T13:26:37.384Z,10.33
2023-01-20T13:29:05.888Z,10.63
2023-01-20T13:31:46.075Z,10.77
2023-01-20T13:34:35.554Z,10.81
2023-01-20T13:37:36.808Z,11.05
2023-01-20T13:40:33.233Z,11.02
2023-01-20T13:43:01.684Z,10.87
2023-01-20T13:45:30.060Z,10.49
2023-01-20T13:48:02.249Z,10.63
2023-01-20T13:50:35.486Z,10.92
2023-01-20T13:53:15.758Z,10.33
2023-01-20T13:55:54.963Z,10.08
2023-01-20T13:58:26.976Z,9.06
2023-01-20T14:00:57.482Z,9.88
2023-01-20T14:03:31.635Z,10.06
2023-01-20T14:06:02.308Z,10.28
2023-01-20T14:08:33.701Z,10.22
2023-01-20T14:11:08.995Z,10.08
2023-01-20T14:13:37.418Z,10.15
2023-01-20T14:16:06.417Z,9.74
2023-01-20T14:18:34.853Z,9.71
2023-01-20T14:21:06.472Z,10.11
2023-01-20T14:23:38.507Z,10.28
2023-01-20T14:26:13.077Z,9.93
2023-01-20T14:28:49.980Z,9.97
2023-01-20T14:31:35.276Z,9.96
2023-01-20T14:34:20.889Z,9.66
2023-01-20T14:36:49.537Z,10.05
2023-01-20T14:39:23.517Z,10.30
2023-01-20T14:41:53.655Z,10.23
2023-01-20T14:44:24.354Z,10.28
2023-01-20T14:46:54.511Z,10.45
2023-01-20T14:49:26.290Z,10.30
2023-01-20T14:51:55.088Z,10.14
2023-01-20T14:54:35.162Z,10.18
2023-01-20T14:57:22.281Z,10.46
2023-01-20T15:00:10.742Z,9.91
2023-01-20T15:02:40.292Z,8.82
2023-01-20T15:05:22.375Z,9.35
2023-01-20T15:07:51.069Z,9.14
2023-01-20T15:10:20.836Z,8.39
2023-01-20T15:12:56.007Z,8.98
2023-01-20T15:15:29.501Z,9.02
2023-01-20T15:18:17.287Z,9.19
2023-01-20T15:20:48.285Z,9.17
2023-01-20T15:23:23.261Z,9.53
2023-01-20T15:25:53.773Z,9.89
2023-01-20T15:28:27.025Z,10.02
2023-01-20T15:30:57.415Z,9.99
2023-01-20T15:33:26.890Z,9.84
2023-01-20T15:35:56.544Z,9.25
2023-01-20T15:38:25.219Z,9.37
2023-01-20T15:40:54.959Z,10.10
2023-01-20T15:43:23.934Z,9.68
2023-01-20T15:45:52.297Z,9.77
2023-01-20T15:48:22.735Z,10.03
2023-01-20T15:50:51.111Z,9.89
2023-01-20T15:53:19.628Z,9.88
2023-01-20T15:55:49.845Z,9.78
2023-01-20T15:58:25.502Z,9.53
2023-01-20T16:00:55.525Z,9.14
2023-01-20T16:03:24.510Z,9.60
2023-01-20T16:05:54.625Z,9.94
2023-01-20T16:08:24.966Z,9.49
2023-01-20T16:10:53.196Z,9.52
2023-01-20T16:13:22.893Z,9.18
2023-01-20T16:15:51.236Z,9.42
2023-01-20T16:18:21.123Z,9.50
2023-01-20T16:20:50.306Z,9.74
2023-01-20T16:23:18.595Z,9.34
2023-01-20T16:25:47.141Z,9.35
2023-01-20T16:28:18.689Z,9.44
2023-01-20T16:30:48.833Z,8.73
2023-01-20T16:33:19.903Z,8.40
2023-01-20T16:35:48.704Z,8.29
2023-01-20T16:38:19.448Z,8.50
2023-01-20T16:40:51.796Z,9.09
2023-01-20T16:43:23.462Z,9.18
2023-01-20T16:45:55.445Z,8.98
2023-01-20T16:48:27.379Z,9.17
2023-01-20T16:50:55.757Z,9.22
2023-01-20T16:53:24.117Z,9.19
2023-01-20T16:55:52.401Z,9.45
2023-01-20T16:58:20.641Z,9.45
2023-01-20T17:00:49.169Z,9.52
2023-01-20T17:03:18.858Z,9.35
2023-01-20T17:05:48.385Z,9.24
2023-01-20T17:08:16.841Z,9.43
2023-01-20T17:10:48.695Z,9.42
2023-01-20T17:13:17.061Z,9.31
2023-01-20T17:15:45.355Z,9.31
2023-01-20T17:18:13.634Z,9.02
2023-01-20T17:20:43.367Z,8.73
2023-01-20T17:23:11.674Z,8.32
2023-01-20T17:25:39.919Z,8.09
2023-01-20T17:28:08.289Z,8.21
2023-01-20T17:30:36.577Z,8.76
2023-01-20T17:33:04.985Z,8.71
2023-01-20T17:35:33.193Z,8.80
2023-01-20T17:38:02.958Z,7.94
2023-01-20T17:40:33.809Z,8.91
2023-01-20T17:43:02.116Z,9.09
2023-01-20T17:45:32.139Z,8.99
2023-01-20T17:48:00.811Z,8.86
2023-01-20T17:50:29.847Z,9.18
2023-01-20T17:52:58.170Z,9.19
2023-01-20T17:55:28.171Z,9.14
2023-01-20T17:57:56.516Z,8.98
2023-01-20T18:00:24.838Z,8.91
2023-01-20T18:02:56.902Z,8.78
2023-01-20T18:05:25.180Z,8.68
2023-01-20T18:07:53.380Z,8.42
2023-01-20T18:10:21.625Z,8.28
2023-01-20T18:12:51.291Z,8.53
2023-01-20T18:15:19.711Z,8.24
2023-01-20T18:17:48.052Z,8.72
2023-01-20T18:20:18.182Z,8.72
2023-01-20T18:22:50.570Z,9.02
2023-01-20T18:25:19.385Z,8.91
2023-01-20T18:27:47.605Z,9.19
2023-01-20T18:30:18.409Z,9.13
2023-01-20T18:32:46.978Z,9.09
2023-01-20T18:35:15.231Z,9.26
2023-01-20T18:37:43.502Z,9.05
2023-01-20T18:40:12.990Z,9.29
2023-01-20T18:42:45.212Z,9.18
2023-01-20T18:45:13.632Z,9.07
2023-01-20T18:47:43.445Z,8.58
2023-01-20T18:50:12.590Z,8.57
2023-01-20T18:52:40.845Z,8.39
2023-01-20T18:55:10.434Z,8.22
2023-01-20T18:57:38.930Z,8.45
2023-01-20T19:00:08.539Z,8.67
2023-01-20T19:02:36.882Z,8.94
2023-01-20T19:05:07.459Z,8.90
2023-01-20T19:07:35.787Z,8.87
2023-01-20T19:10:04.141Z,8.97
2023-01-20T19:12:32.412Z,8.87
2023-01-20T19:15:00.710Z,8.44
2023-01-20T19:17:30.802Z,8.08
2023-01-20T19:19:59.195Z,8.25
2023-01-20T19:22:28.892Z,8.13
2023-01-20T19:24:57.116Z,7.97
2023-01-20T19:27:26.629Z,8.15
2023-01-20T19:29:55.121Z,8.07
2023-01-20T19:32:23.445Z,8.25
2023-01-20T19:34:51.720Z,8.47
2023-01-20T19:37:19.983Z,8.30
2023-01-20T19:39:50.432Z,8.31
2023-01-20T19:42:18.692Z,8.49
2023-01-20T19:44:46.976Z,8.54
2023-01-20T19:47:15.358Z,8.00
2023-01-20T19:49:43.678Z,7.90
2023-01-20T19:52:12.033Z,8.26
2023-01-20T19:54:40.274Z,8.35
2023-01-20T19:57:09.982Z,8.35
2023-01-20T19:59:40.990Z,8.66
2023-01-20T20:02:10.295Z,7.32
2023-01-20T20:04:38.674Z,8.62
2023-01-20T20:07:07.040Z,8.62
2023-01-20T20:09:35.550Z,8.58
2023-01-20T20:12:06.278Z,8.38
2023-01-20T20:14:36.226Z,8.02
2023-01-20T20:17:04.564Z,8.06
2023-01-20T20:19:32.932Z,8.03
2023-01-20T20:22:01.269Z,7.79
2023-01-20T20:24:29.571Z,7.97
2023-01-20T20:26:58.017Z,7.94
2023-01-20T20:29:28.646Z,7.68
2023-01-20T20:31:58.507Z,7.39
2023-01-20T20:34:26.844Z,7.64
2023-01-20T20:36:55.251Z,7.02
2023-01-20T20:39:23.601Z,7.02
2023-01-20T20:41:51.861Z,6.81
2023-01-20T20:44:20.269Z,6.58
2023-01-20T20:46:49.111Z,6.91
2023-01-20T20:49:19.273Z,6.98
2023-01-20T20:51:47.742Z,6.70
2023-01-20T20:54:17.240Z,6.63
2023-01-20T20:56:45.765Z,6.81
2023-01-20T20:59:14.046Z,7.08
2023-01-20T21:01:42.420Z,6.97
2023-01-20T21:04:11.831Z,6.66
2023-01-20T21:06:41.557Z,6.93
2023-01-20T21:09:10.187Z,7.07
2023-01-20T21:11:38.775Z,7.28
2023-01-20T21:14:07.412Z,7.11
2023-01-20T21:16:35.891Z,7.47
2023-01-20T21:19:05.303Z,7.16
2023-01-20T21:21:33.637Z,7.48
2023-01-20T21:24:03.368Z,7.55
2023-01-20T21:26:31.599Z,7.47
2023-01-20T21:29:02.252Z,7.63
2023-01-20T21:31:31.654Z,7.41
2023-01-20T21:34:00.717Z,7.43
2023-01-20T21:36:30.249Z,7.49
2023-01-20T21:38:59.942Z,7.58
2023-01-20T21:41:31.724Z,7.45
2023-01-20T21:44:17.230Z,7.62
2023-01-20T21:46:45.631Z,7.55
2023-01-20T21:49:31.316Z,7.39
2023-01-20T21:52:16.849Z,7.25
2023-01-20T21:54:45.781Z,7.27
2023-01-20T21:57:15.552Z,7.31
2023-01-20T21:59:48.369Z,7.16
2023-01-20T22:02:16.916Z,6.98
2023-01-20T22:04:46.244Z,7.12
2023-01-20T22:07:15.614Z,6.52
2023-01-20T22:09:43.916Z,6.90
2023-01-20T22:12:13.173Z,7.16
2023-01-20T22:14:43.217Z,7.25
2023-01-20T22:17:13.019Z,7.33
2023-01-20T22:19:41.708Z,7.09
2023-01-20T22:22:10.127Z,6.88
2023-01-20T22:24:38.393Z,6.87
2023-01-20T22:27:06.700Z,7.16
2023-01-20T22:29:35.041Z,7.25
2023-01-20T22:32:05.097Z,7.19
2023-01-20T22:34:34.895Z,7.09
2023-01-20T22:37:03.480Z,6.97
2023-01-20T22:39:31.742Z,6.98
2023-01-20T22:41:59.988Z,6.94
2023-01-20T22:44:28.385Z,6.36
2023-01-20T22:46:56.717Z,6.36
2023-01-20T22:49:26.515Z,6.56
2023-01-20T22:51:56.574Z,6.75
2023-01-20T22:54:24.904Z,6.86
2023-01-20T22:56:53.191Z,7.04
2023-01-20T22:59:21.434Z,7.09
2023-01-20T23:01:49.958Z,7.01
2023-01-20T23:04:18.281Z,7.02
2023-01-20T23:06:51.095Z,6.81
2023-01-20T23:09:19.369Z,6.90
2023-01-20T23:11:47.947Z,6.89
2023-01-20T23:14:16.618Z,6.86
2023-01-20T23:16:45.047Z,6.29
2023-01-20T23:19:13.731Z,6.12
2023-01-20T23:21:41.970Z,5.95
2023-01-20T23:24:11.649Z,5.86
2023-01-20T23:26:39.963Z,5.91
2023-01-20T23:29:08.207Z,6.29
2023-01-20T23:31:36.518Z,6.15
2023-01-20T23:34:04.742Z,6.52
2023-01-20T23:36:33.259Z,5.38
2023-01-20T23:39:01.573Z,6.34
2023-01-20T23:41:32.470Z,6.55
2023-01-20T23:44:00.719Z,6.54
2023-01-20T23:46:29.135Z,6.66
2023-01-20T23:48:57.377Z,6.67
2023-01-20T23:51:25.620Z,6.59
2023-01-20T23:53:56.965Z,6.24
2023-01-20T23:56:26.449Z,6.36
2023-01-20T23:58:56.158Z,6.40
